createdAt,value
2019-01-04T00:00:02.036Z,1.3
2019-01-04T00:05:01.644Z,1.3
2019-01-04T00:10:01.776Z,1.3
2019-01-04T00:15:01.824Z,1.4
2019-01-04T00:20:01.723Z,1.4
2019-01-04T00:25:01.687Z,1.4
2019-01-04T00:30:01.941Z,1.4
2019-01-04T00:35:01.638Z,1.4
2019-01-04T00:40:01.306Z,1.5
2019-01-04T00:45:01.891Z,1.5
2019-01-04T00:50:01.698Z,1.6
2019-01-04T00:55:01.470Z,1.7
2019-01-04T01:00:01.625Z,1.7
2019-01-04T01:05:01.314Z,1.9
2019-01-04T01:10:01.207Z,2
2019-01-04T01:15:02.180Z,2.1
2019-01-04T01:20:01.986Z,2.2
2019-01-04T01:25:01.640Z,2.3
2019-01-04T01:30:01.913Z,2.4
2019-01-04T01:35:02.388Z,2.4
2019-01-04T01:40:01.179Z,2.5
2019-01-04T01:45:01.439Z,2.6
2019-01-04T01:50:01.342Z,2.6
2019-01-04T01:55:01.685Z,2.7
2019-01-04T02:00:01.429Z,2.8
2019-01-04T02:05:01.939Z,2.9
2019-01-04T02:10:02.126Z,3
2019-01-04T02:15:01.307Z,3.1
2019-01-04T02:20:02.110Z,3.2
2019-01-04T02:25:01.231Z,3.2
2019-01-04T02:30:01.370Z,3.3
2019-01-04T02:35:01.328Z,3.4
2019-01-04T02:40:01.485Z,3.4
2019-01-04T02:45:01.782Z,3.5
2019-01-04T02:50:01.518Z,3.5
2019-01-04T02:55:01.425Z,3.5
2019-01-04T03:00:01.615Z,3.5
2019-01-04T03:05:01.559Z,3.5
2019-01-04T03:10:01.634Z,3.5
2019-01-04T03:15:02.278Z,3.5
2019-01-04T03:20:01.189Z,3.5
2019-01-04T03:25:01.354Z,3.5
2019-01-04T03:30:01.404Z,3.6
2019-01-04T03:35:01.546Z,3.6
2019-01-04T03:40:01.580Z,3.7
2019-01-04T03:45:01.897Z,3.7
2019-01-04T03:50:01.971Z,3.7
2019-01-04T03:55:01.885Z,3.7
2019-01-04T04:00:02.123Z,3.7
2019-01-04T04:05:02.049Z,3.7
2019-01-04T04:10:02.037Z,3.7
2019-01-04T04:15:02.051Z,3.8
2019-01-04T04:20:01.904Z,3.8
2019-01-04T04:25:01.774Z,3.9
2019-01-04T04:30:01.599Z,3.9
2019-01-04T04:35:01.518Z,3.9
2019-01-04T04:40:01.796Z,3.9
2019-01-04T04:45:01.929Z,3.9
2019-01-04T04:50:01.900Z,3.9
2019-01-04T04:55:01.528Z,4
2019-01-04T05:00:01.743Z,4
2019-01-04T05:05:01.927Z,4
2019-01-04T05:10:02.160Z,4
2019-01-04T05:15:01.654Z,4
2019-01-04T05:20:01.395Z,4.1
2019-01-04T05:25:01.675Z,4.1
2019-01-04T05:30:01.731Z,4.1
2019-01-04T05:35:01.592Z,4.1
2019-01-04T05:40:01.557Z,4.2
2019-01-04T05:45:01.976Z,4.2
2019-01-04T05:50:01.868Z,4.2
2019-01-04T05:55:01.556Z,4.2
2019-01-04T06:00:02.203Z,4.3
2019-01-04T06:05:02.124Z,4.4
2019-01-04T06:10:01.526Z,4.4
2019-01-04T06:15:01.352Z,4.4
2019-01-04T06:20:01.413Z,4.4
2019-01-04T06:25:01.341Z,4.4
2019-01-04T06:30:01.664Z,4.4
2019-01-04T06:35:02.241Z,4.4
2019-01-04T06:40:01.951Z,4.4
2019-01-04T06:45:01.170Z,4.4
2019-01-04T06:50:01.160Z,4.5
2019-01-04T06:55:02.051Z,4.5
2019-01-04T07:00:01.641Z,4.5
2019-01-04T07:05:01.214Z,4.5
2019-01-04T07:10:01.855Z,4.5
2019-01-04T07:15:01.711Z,4.5
2019-01-04T07:20:01.421Z,4.6
2019-01-04T07:25:01.565Z,4.6
2019-01-04T07:30:01.805Z,4.6
2019-01-04T07:35:01.898Z,4.7
2019-01-04T07:40:01.836Z,4.7
2019-01-04T07:45:01.251Z,4.8
2019-01-04T07:50:01.353Z,4.8
2019-01-04T07:55:01.573Z,4.8
2019-01-04T08:00:01.944Z,4.9
2019-01-04T08:05:01.612Z,4.9
2019-01-04T08:10:02.238Z,4.8
2019-01-04T08:15:01.430Z,4.8
2019-01-04T08:20:02.114Z,4.8
2019-01-04T08:25:02.310Z,4.8
2019-01-04T08:30:01.601Z,4.8
2019-01-04T08:35:01.902Z,4.9
2019-01-04T08:40:01.606Z,4.8
2019-01-04T08:45:01.676Z,4.8
2019-01-04T08:50:01.639Z,4.9
2019-01-04T08:55:01.364Z,4.9
2019-01-04T09:00:01.906Z,4.9
2019-01-04T09:05:01.695Z,4.9
2019-01-04T09:10:01.537Z,4.9
2019-01-04T09:15:01.523Z,4.8
2019-01-04T09:20:02.130Z,4.8
2019-01-04T09:25:01.626Z,4.8
2019-01-04T09:30:02.230Z,4.9
2019-01-04T09:35:01.474Z,4.9
2019-01-04T09:40:01.299Z,4.9
2019-01-04T09:45:01.315Z,4.9
2019-01-04T09:50:01.627Z,4.9
2019-01-04T09:55:01.743Z,4.9
2019-01-04T10:00:01.238Z,5
2019-01-04T10:05:02.098Z,5
2019-01-04T10:10:01.951Z,5
2019-01-04T10:15:01.566Z,5
2019-01-04T10:20:01.300Z,5
2019-01-04T10:25:02.025Z,5
2019-01-04T10:30:01.582Z,5.1
2019-01-04T10:35:01.956Z,5.1
2019-01-04T10:40:01.956Z,5.1
2019-01-04T10:45:01.984Z,5.1
2019-01-04T10:50:01.939Z,5.2
2019-01-04T10:55:01.580Z,5.2
2019-01-04T11:00:01.846Z,5.3
2019-01-04T11:05:02.154Z,5.3
2019-01-04T11:10:01.844Z,5.4
2019-01-04T11:15:01.523Z,5.4
2019-01-04T11:20:01.478Z,5.5
2019-01-04T11:25:01.631Z,5.5
2019-01-04T11:30:02.300Z,5.6
2019-01-04T11:35:01.826Z,5.6
2019-01-04T11:40:01.838Z,5.7
2019-01-04T11:45:01.992Z,5.8
2019-01-04T11:50:02.191Z,5.9
2019-01-04T11:55:01.650Z,6
2019-01-04T12:00:01.303Z,6
2019-01-04T12:05:02.006Z,6.1
2019-01-04T12:10:01.515Z,6.2
2019-01-04T12:15:02.127Z,6.3
2019-01-04T12:20:01.293Z,6.4
2019-01-04T12:25:01.681Z,6.4
2019-01-04T12:30:02.043Z,6.5
2019-01-04T12:35:01.818Z,6.6
2019-01-04T12:40:01.954Z,6.6
2019-01-04T12:45:01.639Z,6.7
2019-01-04T12:50:02.108Z,6.8
2019-01-04T12:55:01.916Z,6.9
2019-01-04T13:00:01.248Z,6.9
2019-01-04T13:05:01.375Z,6.9
2019-01-04T13:10:01.406Z,7
2019-01-04T13:15:01.552Z,7
2019-01-04T13:20:01.197Z,7.1
2019-01-04T13:25:02.311Z,7.1
2019-01-04T13:30:01.549Z,7.1
2019-01-04T13:35:02.094Z,7.2
2019-01-04T13:40:02.385Z,7.2
2019-01-04T13:45:02.095Z,7.2
2019-01-04T13:50:02.116Z,7.2
2019-01-04T13:55:01.713Z,7.2
2019-01-04T14:00:02.289Z,7.2
2019-01-04T14:05:01.206Z,7.2
2019-01-04T14:10:02.108Z,7.2
2019-01-04T14:15:01.901Z,7.2
2019-01-04T14:20:01.748Z,7.2
2019-01-04T14:25:01.281Z,7.3
2019-01-04T14:30:01.680Z,7.2
2019-01-04T14:35:01.697Z,7.3
2019-01-04T14:40:01.251Z,7.3
2019-01-04T14:45:02.047Z,7.3
2019-01-04T14:50:02.112Z,7.3
2019-01-04T14:55:01.147Z,7.3
2019-01-04T15:00:01.450Z,7.3
2019-01-04T15:05:01.595Z,7.3
2019-01-04T15:10:01.784Z,7.3
2019-01-04T15:15:01.313Z,7.2
2019-01-04T15:20:01.570Z,7.2
2019-01-04T15:25:02.277Z,7.3
2019-01-04T15:30:01.494Z,7.3
2019-01-04T15:35:01.773Z,7.3
2019-01-04T15:40:01.510Z,7.3
2019-01-04T15:45:02.266Z,7.3
2019-01-04T15:50:01.545Z,7.3
2019-01-04T15:55:01.751Z,7.3
2019-01-04T16:00:01.407Z,7.3
2019-01-04T16:05:02.083Z,7.3
2019-01-04T16:10:02.135Z,7.4
2019-01-04T16:15:01.434Z,7.5
2019-01-04T16:20:01.494Z,7.5
2019-01-04T16:25:01.889Z,7.6
2019-01-04T16:30:01.387Z,7.6
2019-01-04T16:35:02.747Z,7.6
2019-01-04T16:40:02.703Z,7.7
2019-01-04T16:45:01.786Z,7.7
2019-01-04T16:50:01.989Z,7.8
2019-01-04T16:55:01.716Z,7.8
2019-01-04T17:00:01.525Z,7.8
2019-01-04T17:05:01.353Z,7.8
2019-01-04T17:10:01.523Z,7.9
2019-01-04T17:15:02.395Z,7.9
2019-01-04T17:20:01.454Z,7.9
2019-01-04T17:25:01.656Z,7.9
2019-01-04T17:30:01.484Z,7.9
2019-01-04T17:35:01.512Z,7.9
2019-01-04T17:40:01.797Z,7.9
2019-01-04T17:45:02.095Z,7.9
2019-01-04T17:50:01.151Z,7.9
2019-01-04T17:55:01.945Z,7.9
2019-01-04T18:00:01.394Z,7.9
2019-01-04T18:05:01.699Z,7.9
2019-01-04T18:10:02.126Z,7.9
2019-01-04T18:15:02.117Z,7.9
2019-01-04T18:20:01.771Z,7.9
2019-01-04T18:25:01.279Z,7.9
2019-01-04T18:30:01.787Z,7.9
2019-01-04T18:35:01.903Z,7.9
2019-01-04T18:40:01.438Z,7.9
2019-01-04T18:45:02.376Z,7.9
2019-01-04T18:50:01.897Z,7.8
2019-01-04T18:55:01.963Z,7.8
2019-01-04T19:00:01.724Z,7.9
2019-01-04T19:05:01.867Z,7.8
2019-01-04T19:10:01.497Z,7.8
2019-01-04T19:15:02.002Z,7.8
2019-01-04T19:20:01.715Z,7.8
2019-01-04T19:25:01.641Z,7.7
2019-01-04T19:30:01.258Z,7.7
2019-01-04T19:35:02.206Z,7.7
2019-01-04T19:40:01.802Z,7.7
2019-01-04T19:45:01.543Z,7.7
2019-01-04T19:50:01.524Z,7.7
2019-01-04T19:55:01.813Z,7.7
2019-01-04T20:00:01.331Z,7.7
2019-01-04T20:05:01.808Z,7.7
2019-01-04T20:10:02.442Z,7.7
2019-01-04T20:15:01.356Z,7.7
2019-01-04T20:20:01.988Z,7.7
2019-01-04T20:25:01.244Z,7.7
2019-01-04T20:30:01.512Z,7.8
2019-01-04T20:35:01.854Z,7.8
2019-01-04T20:40:02.008Z,7.8
2019-01-04T20:45:01.402Z,7.8
2019-01-04T20:50:02.112Z,7.8
2019-01-04T20:55:01.387Z,7.8
2019-01-04T21:00:02.064Z,7.8
2019-01-04T21:05:01.285Z,7.8
2019-01-04T21:10:02.027Z,7.8
2019-01-04T21:15:01.896Z,7.8
2019-01-04T21:20:02.011Z,7.8
2019-01-04T21:25:01.330Z,7.8
2019-01-04T21:30:01.351Z,7.8
2019-01-04T21:35:01.531Z,7.8
2019-01-04T21:40:01.195Z,7.8
2019-01-04T21:45:01.642Z,7.9
2019-01-04T21:50:01.489Z,7.9
2019-01-04T21:55:01.196Z,7.9
2019-01-04T22:00:01.602Z,7.9
2019-01-04T22:05:02.231Z,8
2019-01-04T22:10:01.758Z,8
2019-01-04T22:15:01.508Z,8
2019-01-04T22:20:01.530Z,8
2019-01-04T22:25:02.361Z,8.1
2019-01-04T22:30:01.737Z,8.1
2019-01-04T22:35:01.879Z,8.2
2019-01-04T22:40:02.031Z,8.2
2019-01-04T22:45:01.524Z,8.2
2019-01-04T22:50:02.096Z,8.2
2019-01-04T22:55:01.509Z,8.1
2019-01-04T23:00:01.658Z,8.1
2019-01-04T23:05:01.748Z,8.1
2019-01-04T23:10:01.471Z,8.1
2019-01-04T23:15:01.713Z,8.2
2019-01-04T23:20:01.822Z,8.2
2019-01-04T23:25:01.970Z,8.2
2019-01-04T23:30:01.833Z,8.1
2019-01-04T23:35:01.424Z,8.2
2019-01-04T23:40:01.258Z,8.2
2019-01-04T23:45:01.453Z,8.2
2019-01-04T23:50:01.991Z,8.2
2019-01-04T23:55:02.031Z,8.2
